Time;durP1;ratioP1;P1;durP2;ratioP2;P2;SDS_P1;SDS_P2;PMS_P1;PMS_P2;Temp;Humidity;BMP_temperature;BMP_pressure;BME280_temperature;BME280_humidity;BME280_pressure;Samples;Min_cycle;Max_cycle;Signal;HPM_P1;HPM_P2
2022/05/24 00:02:04;;;;;;;2.53;1.48;;;16.90;98.70;;;;;;7376551;19;20341;-74
2022/05/24 00:04:30;;;;;;;1.53;1.43;;;16.90;98.20;;;;;;7381720;19;20324;-73
2022/05/24 00:06:56;;;;;;;1.90;1.80;;;16.80;98.20;;;;;;7376188;19;21288;-74
2022/05/24 00:09:22;;;;;;;3.20;2.00;;;16.80;98.90;;;;;;7378801;19;20341;-74
2022/05/24 00:11:47;;;;;;;1.90;1.60;;;16.80;99.00;;;;;;7377820;19;20329;-73
2022/05/24 00:14:13;;;;;;;2.17;1.70;;;16.90;99.00;;;;;;7380660;19;20412;-74
2022/05/24 00:16:38;;;;;;;2.20;1.90;;;16.90;99.10;;;;;;7353021;19;20357;-74
2022/05/24 00:19:04;;;;;;;2.30;1.70;;;16.90;99.10;;;;;;7380319;19;20356;-74
2022/05/24 00:21:29;;;;;;;2.50;1.80;;;16.90;98.90;;;;;;7376647;19;20375;-73
2022/05/24 00:23:55;;;;;;;2.53;1.70;;;16.90;99.30;;;;;;7380948;19;20411;-74
2022/05/24 00:26:31;;;;;;;1.47;1.37;;;16.90;99.20;;;;;;7376456;19;20341;-74
2022/05/24 00:28:56;;;;;;;2.05;1.85;;;16.90;98.80;;;;;;7378365;19;20344;-75
2022/05/24 00:31:22;;;;;;;1.57;1.47;;;16.90;98.20;;;;;;7378330;19;20340;-73
2022/05/24 00:33:48;;;;;;;2.75;1.77;;;16.90;98.80;;;;;;7382545;19;20321;-74
2022/05/24 00:36:13;;;;;;;3.80;1.70;;;16.90;98.80;;;;;;7367152;19;21054;-74
2022/05/24 00:38:39;;;;;;;2.27;1.70;;;16.80;98.90;;;;;;7379499;19;20368;-74
2022/05/24 00:41:27;;;;;;;2.03;1.75;;;16.80;99.20;;;;;;7378514;19;21843;-74
2022/05/24 00:43:56;;;;;;;2.53;1.60;;;16.70;99.40;;;;;;7276076;19;2004694;-75
2022/05/24 00:46:23;;;;;;;2.10;1.50;;;16.60;99.60;;;;;;7376638;19;20871;-74
2022/05/24 00:48:54;;;;;;;2.90;1.70;;;16.60;99.80;;;;;;7376432;19;20353;-74
2022/05/24 00:51:51;;;;;;;1.92;1.77;;;16.60;99.90;;;;;;7373491;19;20352;-74
2022/05/24 00:54:17;;;;;;;1.80;1.70;;;16.60;99.90;;;;;;7375534;19;20321;-74
2022/05/24 00:56:58;;;;;;;2.53;1.70;;;16.60;99.90;;;;;;7375528;19;20654;-73
2022/05/24 00:59:59;;;;;;;1.85;1.75;;;16.60;99.90;;;;;;7376097;19;20387;-74
2022/05/24 01:02:24;;;;;;;1.70;1.60;;;16.60;99.90;;;;;;7271547;19;2004512;-74
2022/05/24 01:04:50;;;;;;;2.13;1.60;;;16.60;99.90;;;;;;7373448;19;21031;-73
2022/05/24 01:07:15;;;;;;;2.00;1.80;;;16.60;99.90;;;;;;7374292;19;20349;-74
2022/05/24 01:09:53;;;;;;;2.00;1.80;;;16.60;99.90;;;;;;7377223;19;20320;-73
2022/05/24 01:12:20;;;;;;;1.92;1.73;;;16.60;99.90;;;;;;7375127;19;21029;-74
2022/05/24 01:14:45;;;;;;;1.92;1.80;;;16.60;99.90;;;;;;7374431;19;21333;-74
2022/05/24 01:17:11;;;;;;;1.90;1.60;;;16.60;99.90;;;;;;7374559;19;20351;-75
2022/05/24 01:19:43;;;;;;;2.40;1.73;;;16.60;99.90;;;;;;7376229;19;20324;-74
2022/05/24 01:22:35;;;;;;;1.80;1.70;;;16.60;99.90;;;;;;7367629;19;20787;-75
2022/05/24 01:25:08;;;;;;;1.88;1.63;;;16.60;99.90;;;;;;7269076;19;2004329;-74
2022/05/24 01:27:35;;;;;;;2.25;1.77;;;16.70;99.90;;;;;;7374401;19;20372;-74
2022/05/24 01:30:03;;;;;;;1.60;1.50;;;16.70;99.90;;;;;;7375840;19;20704;-74
2022/05/24 01:37:57;;;;;;;1.83;1.73;;;16.60;99.90;;;;;;7274889;19;2004360;-74
2022/05/24 01:40:23;;;;;;;2.80;1.75;;;16.70;99.90;;;;;;7376751;19;20305;-73
2022/05/24 01:42:48;;;;;;;1.83;1.45;;;16.70;99.90;;;;;;7375366;19;20351;-74
2022/05/24 01:45:26;;;;;;;2.03;1.73;;;16.60;99.90;;;;;;7371883;19;20340;-75
2022/05/24 01:47:55;;;;;;;5.18;1.73;;;16.60;99.90;;;;;;7271607;19;2004511;-75
2022/05/24 01:50:21;;;;;;;1.70;1.60;;;16.60;99.90;;;;;;7376077;19;20349;-74
2022/05/24 01:52:53;;;;;;;1.60;1.50;;;16.60;99.90;;;;;;7375119;19;20340;-74
2022/05/24 01:55:26;;;;;;;2.05;1.80;;;16.60;99.90;;;;;;7370596;19;20344;-75
2022/05/24 01:57:54;;;;;;;2.33;1.80;;;16.70;99.90;;;;;;7373723;19;22509;-74
2022/05/24 02:00:19;;;;;;;2.20;1.80;;;16.60;99.90;;;;;;7375082;19;20365;-75
2022/05/24 02:02:45;;;;;;;1.73;1.63;;;16.80;99.90;;;;;;7373527;19;20324;-74
2022/05/24 02:05:11;;;;;;;2.20;1.67;;;16.60;99.90;;;;;;7372819;19;20320;-74
2022/05/24 02:07:37;;;;;;;2.53;1.88;;;16.70;99.90;;;;;;7374543;19;20328;-74
2022/05/24 02:10:03;;;;;;;1.52;1.42;;;16.60;99.90;;;;;;7373280;19;20396;-74
2022/05/24 02:12:46;;;;;;;1.42;1.33;;;16.60;99.90;;;;;;7375376;19;20348;-74
2022/05/24 02:15:20;;;;;;;2.10;1.67;;;16.60;99.90;;;;;;7269333;19;2004482;-75
2022/05/24 02:18:02;;;;;;;1.50;1.40;;;16.60;99.90;;;;;;7372900;19;20329;-75
2022/05/24 02:20:30;;;;;;;1.40;1.30;;;16.60;99.90;;;;;;7272206;19;2004426;-74
2022/05/24 02:22:55;;;;;;;1.20;1.20;;;16.60;99.90;;;;;;7374847;19;20352;-75
2022/05/24 02:25:36;;;;;;;2.20;1.60;;;16.60;99.90;;;;;;7371093;19;20683;-75
2022/05/24 02:28:02;;;;;;;1.57;1.47;;;16.70;99.90;;;;;;7372549;19;20345;-74
2022/05/24 02:30:29;;;;;;;1.50;1.40;;;16.70;99.90;;;;;;7375191;19;20360;-74
2022/05/24 02:32:54;;;;;;;1.60;1.50;;;16.70;99.90;;;;;;7375011;19;20348;-75
2022/05/24 02:35:21;;;;;;;1.60;1.40;;;16.70;99.90;;;;;;7376255;19;20377;-74
2022/05/24 02:37:46;;;;;;;1.67;1.57;;;16.80;99.90;;;;;;7380474;19;20344;-74
2022/05/24 02:42:56;;;;;;;1.70;1.60;;;16.70;99.90;;;;;;7380286;19;20356;-74
2022/05/24 02:45:22;;;;;;;3.20;1.80;;;16.70;99.90;;;;;;7377460;19;21009;-74
2022/05/24 02:47:48;;;;;;;1.97;1.87;;;16.70;99.90;;;;;;7379876;19;20340;-74
2022/05/24 02:50:13;;;;;;;1.70;1.60;;;16.70;99.90;;;;;;7381737;19;20365;-75
2022/05/24 02:52:40;;;;;;;1.80;1.70;;;16.70;99.90;;;;;;7385061;19;20823;-74
2022/05/24 02:55:10;;;;;;;3.95;1.80;;;16.70;99.90;;;;;;7380852;19;20348;-75
2022/05/24 02:57:36;;;;;;;1.27;1.17;;;16.70;99.90;;;;;;7383217;19;20343;-74
2022/05/24 03:00:22;;;;;;;2.03;1.60;;;16.70;99.90;;;;;;7381383;19;20328;-75
2022/05/24 03:02:49;;;;;;;3.50;3.20;;;16.70;99.90;;;;;;7273509;19;2020016;-74
2022/05/24 03:05:20;;;;;;;1.92;1.70;;;16.70;99.90;;;;;;7377835;19;20345;-74
2022/05/24 03:10:31;;;;;;;1.40;1.30;;;16.80;99.90;;;;;;7281310;19;2004430;-74
2022/05/24 03:15:41;;;;;;;1.40;1.30;;;16.80;99.90;;;;;;7276443;19;2004473;-74
2022/05/24 03:18:08;;;;;;;1.60;1.50;;;16.80;99.90;;;;;;7382935;19;20349;-75
2022/05/24 03:20:33;;;;;;;1.60;1.50;;;16.80;99.90;;;;;;7384828;19;20332;-74
2022/05/24 03:22:59;;;;;;;2.42;1.60;;;16.90;99.90;;;;;;7383264;19;20316;-75
2022/05/24 03:25:25;;;;;;;3.10;2.20;;;16.90;99.90;;;;;;7378613;19;20339;-75
2022/05/24 03:27:50;;;;;;;1.67;1.58;;;16.80;99.90;;;;;;7379850;19;20358;-74
2022/05/24 03:30:16;;;;;;;2.13;1.50;;;16.80;99.90;;;;;;7380285;19;20863;-74
2022/05/24 03:32:42;;;;;;;1.80;1.70;;;16.80;99.90;;;;;;7380207;19;20336;-75
2022/05/24 03:35:08;;;;;;;3.53;2.10;;;16.80;99.90;;;;;;7376663;19;20340;-74
2022/05/24 03:37:34;;;;;;;1.48;1.38;;;16.80;99.90;;;;;;7381722;19;20421;-74
2022/05/24 03:39:59;;;;;;;4.75;2.08;;;16.80;99.90;;;;;;7380599;19;20355;-74
2022/05/24 03:42:25;;;;;;;2.43;1.90;;;16.90;99.90;;;;;;7381624;19;20337;-75
2022/05/24 03:44:51;;;;;;;1.97;1.87;;;16.90;99.90;;;;;;7375385;19;20340;-75
2022/05/24 03:47:16;;;;;;;2.33;2.13;;;16.90;99.90;;;;;;7377944;19;20369;-74
2022/05/24 03:49:42;;;;;;;2.17;1.98;;;16.90;99.90;;;;;;7377276;19;20309;-74
2022/05/24 03:52:07;;;;;;;3.80;2.30;;;17.00;99.90;;;;;;7378654;19;20355;-74
2022/05/24 03:54:34;;;;;;;2.47;2.25;;;17.00;99.90;;;;;;7375252;19;20389;-74
2022/05/24 03:59:43;;;;;;;2.15;1.98;;;17.10;99.90;;;;;;7274401;19;2004778;-74
2022/05/24 04:02:09;;;;;;;2.10;1.90;;;17.10;99.90;;;;;;7378029;19;20336;-75
2022/05/24 04:04:35;;;;;;;2.30;2.10;;;17.10;99.90;;;;;;7375041;19;20417;-74
2022/05/24 04:07:00;;;;;;;2.17;2.00;;;17.10;99.90;;;;;;7379128;19;20312;-75
2022/05/24 04:09:26;;;;;;;3.42;2.10;;;17.10;99.90;;;;;;7382466;19;20380;-75
2022/05/24 04:11:54;;;;;;;4.40;2.17;;;17.10;99.90;;;;;;7378270;19;20337;-75
2022/05/24 04:14:22;;;;;;;3.25;2.30;;;17.20;99.90;;;;;;7376715;19;21499;-75
2022/05/24 04:16:48;;;;;;;2.50;2.30;;;17.20;99.90;;;;;;7377453;19;20383;-75
2022/05/24 04:19:13;;;;;;;2.37;2.17;;;17.30;99.90;;;;;;7380216;19;20344;-75
2022/05/24 04:21:39;;;;;;;2.03;1.80;;;17.30;99.90;;;;;;7376783;19;20328;-75
2022/05/24 04:24:05;;;;;;;2.13;1.92;;;17.40;99.90;;;;;;7378124;19;20394;-75
2022/05/24 04:26:31;;;;;;;2.97;2.13;;;17.40;99.90;;;;;;7372162;19;20411;-75
2022/05/24 04:28:57;;;;;;;6.70;2.65;;;17.50;99.90;;;;;;7378893;19;20435;-75
2022/05/24 04:31:23;;;;;;;2.55;2.33;;;17.50;99.90;;;;;;7377258;19;20400;-75
2022/05/24 04:33:49;;;;;;;2.37;2.10;;;17.50;99.90;;;;;;7378416;19;20365;-75
2022/05/24 04:36:15;;;;;;;2.60;2.40;;;17.50;99.90;;;;;;7377763;19;20412;-75
2022/05/24 04:38:40;;;;;;;2.80;2.43;;;17.60;99.90;;;;;;7377630;19;20352;-75
2022/05/24 04:43:50;;;;;;;4.10;2.45;;;17.50;99.90;;;;;;7275365;19;2004556;-75
2022/05/24 04:46:16;;;;;;;2.37;2.13;;;17.50;99.90;;;;;;7378029;19;20356;-75
2022/05/24 04:48:41;;;;;;;3.43;2.20;;;17.50;99.90;;;;;;7378089;19;20341;-76
2022/05/24 04:51:07;;;;;;;2.83;2.20;;;17.50;99.90;;;;;;7379505;19;20847;-76
2022/05/24 04:53:32;;;;;;;2.37;2.13;;;17.50;99.90;;;;;;7377707;19;20312;-75
2022/05/24 04:56:03;;;;;;;2.65;2.33;;;17.50;99.90;;;;;;7372226;19;21028;-75
2022/05/24 04:58:29;;;;;;;2.53;2.28;;;17.50;99.90;;;;;;7379533;19;20330;-75
2022/05/24 05:00:54;;;;;;;2.40;1.90;;;17.50;99.90;;;;;;7376307;19;20867;-75
2022/05/24 05:03:20;;;;;;;2.20;2.00;;;17.50;99.90;;;;;;7379025;19;20324;-76
2022/05/24 05:05:47;;;;;;;3.20;2.00;;;17.50;99.90;;;;;;7370720;19;20413;-76
2022/05/24 05:08:13;;;;;;;2.58;2.00;;;17.50;99.90;;;;;;7378362;19;20379;-76
2022/05/24 05:10:39;;;;;;;2.65;1.92;;;17.50;99.90;;;;;;7379165;19;20332;-76
2022/05/24 05:13:04;;;;;;;1.80;1.70;;;17.60;99.90;;;;;;7376929;19;20348;-76
2022/05/24 05:15:31;;;;;;;2.10;1.93;;;17.60;99.90;;;;;;7373195;19;20355;-75
2022/05/24 05:18:04;;;;;;;2.13;1.92;;;17.70;99.90;;;;;;7370234;19;20387;-75
2022/05/24 05:20:31;;;;;;;2.60;2.00;;;17.70;99.90;;;;;;7377916;19;20304;-75
2022/05/24 05:22:57;;;;;;;2.25;2.05;;;17.80;99.90;;;;;;7377352;19;20345;-75
2022/05/24 05:25:23;;;;;;;2.17;1.92;;;17.90;99.90;;;;;;7376405;19;20320;-76
2022/05/24 05:27:49;;;;;;;1.95;1.85;;;18.00;99.90;;;;;;7376083;19;20350;-75
2022/05/24 05:32:59;;;;;;;2.20;2.00;;;18.20;99.90;;;;;;7380149;19;20412;-76
2022/05/24 05:35:24;;;;;;;2.77;2.10;;;18.30;99.90;;;;;;7375915;19;20403;-76
2022/05/24 05:37:50;;;;;;;3.20;2.50;;;18.30;99.90;;;;;;7378520;19;20323;-75
2022/05/24 05:40:15;;;;;;;2.47;2.27;;;18.30;99.90;;;;;;7376677;19;20341;-76
2022/05/24 05:42:41;;;;;;;2.93;2.30;;;18.30;99.90;;;;;;7378687;19;20343;-75
2022/05/24 05:45:10;;;;;;;2.00;1.90;;;18.40;99.90;;;;;;7372997;19;20851;-75
2022/05/24 05:47:36;;;;;;;2.05;1.90;;;18.40;99.90;;;;;;7376609;19;20979;-76
2022/05/24 05:50:02;;;;;;;2.30;2.10;;;18.40;99.90;;;;;;7378020;19;20316;-75
2022/05/24 05:52:28;;;;;;;2.72;2.13;;;18.40;99.90;;;;;;7377770;19;20341;-75
2022/05/24 05:54:53;;;;;;;1.90;1.80;;;18.50;99.90;;;;;;7374295;19;20754;-75
2022/05/24 05:57:19;;;;;;;2.10;1.90;;;18.60;99.90;;;;;;7375748;19;20321;-75
2022/05/24 05:59:45;;;;;;;2.00;1.80;;;18.60;99.90;;;;;;7375703;19;20447;-75
2022/05/24 06:02:11;;;;;;;1.80;1.70;;;18.60;99.90;;;;;;7373647;19;20424;-75
2022/05/24 06:04:36;;;;;;;2.50;2.00;;;18.70;99.90;;;;;;7369671;19;21100;-75
2022/05/24 06:07:02;;;;;;;2.30;1.98;;;18.70;99.90;;;;;;7371881;19;20354;-75
2022/05/24 06:09:28;;;;;;;1.70;1.60;;;18.80;99.90;;;;;;7377676;19;20334;-75
2022/05/24 06:11:57;;;;;;;2.08;1.88;;;18.90;99.90;;;;;;7368235;19;20316;-75
2022/05/24 06:14:23;;;;;;;3.03;1.80;;;19.00;99.90;;;;;;7375757;19;20989;-75
2022/05/24 06:16:48;;;;;;;2.00;1.80;;;19.10;99.90;;;;;;7381370;19;20359;-75
2022/05/24 06:19:14;;;;;;;2.60;1.70;;;19.20;99.90;;;;;;7380877;19;20336;-75
2022/05/24 06:21:39;;;;;;;1.80;1.70;;;19.30;99.90;;;;;;7377478;19;20324;-75
2022/05/24 06:24:05;;;;;;;2.40;1.90;;;19.40;99.90;;;;;;7381042;19;20435;-75
2022/05/24 06:26:32;;;;;;;2.45;1.80;;;19.40;99.90;;;;;;7378554;19;20359;-75
2022/05/24 06:28:58;;;;;;;1.90;1.80;;;19.50;99.90;;;;;;7381046;19;20360;-75
2022/05/24 06:31:23;;;;;;;1.85;1.60;;;19.50;99.90;;;;;;7376361;19;20324;-75
2022/05/24 06:33:49;;;;;;;2.10;1.90;;;19.60;99.90;;;;;;7381918;19;20357;-75
2022/05/24 06:36:14;;;;;;;3.37;1.47;;;19.60;99.90;;;;;;7383437;19;20345;-75
2022/05/24 06:38:40;;;;;;;1.67;1.57;;;19.60;99.90;;;;;;7385171;19;20441;-76
2022/05/24 06:41:06;;;;;;;2.65;1.75;;;19.60;99.90;;;;;;7377206;19;21045;-75
2022/05/24 06:43:35;;;;;;;1.60;1.50;;;19.50;99.90;;;;;;7385728;19;20321;-75
2022/05/24 06:46:07;;;;;;;1.40;1.30;;;19.60;99.90;;;;;;7378898;19;20384;-75
2022/05/24 06:48:34;;;;;;;2.20;1.50;;;19.80;99.90;;;;;;7383827;19;20336;-75
2022/05/24 06:50:59;;;;;;;1.70;1.60;;;19.90;99.90;;;;;;7380960;19;20324;-75
2022/05/24 06:53:25;;;;;;;1.55;1.45;;;19.90;99.90;;;;;;7382432;19;20347;-75
2022/05/24 06:55:51;;;;;;;2.50;1.52;;;20.00;99.90;;;;;;7368903;19;20989;-75
2022/05/24 06:58:16;;;;;;;1.90;1.63;;;19.90;99.90;;;;;;7382459;19;20337;-75
2022/05/24 07:03:27;;;;;;;1.30;1.30;;;20.30;99.90;;;;;;7384551;19;20308;-75
2022/05/24 07:05:53;;;;;;;2.45;1.70;;;20.40;99.90;;;;;;7376394;19;20357;-73
2022/05/24 07:08:18;;;;;;;1.53;1.43;;;20.60;99.90;;;;;;7383422;19;20882;-76
2022/05/24 07:10:45;;;;;;;1.60;1.50;;;20.70;99.90;;;;;;7382361;19;20336;-76
2022/05/24 07:13:14;;;;;;;1.45;1.35;;;20.70;99.90;;;;;;7382392;19;20365;-76
2022/05/24 07:15:40;;;;;;;1.60;1.42;;;20.90;99.90;;;;;;7370058;19;20349;-76
2022/05/24 07:18:06;;;;;;;1.50;1.40;;;21.10;99.90;;;;;;7375618;19;20717;-75
2022/05/24 07:20:33;;;;;;;1.35;1.27;;;21.30;99.90;;;;;;7375824;19;20321;-76
2022/05/24 07:23:17;;;;;;;1.45;1.35;;;21.60;99.90;;;;;;7377672;19;20335;-76
2022/05/24 07:25:43;;;;;;;1.50;1.40;;;21.80;99.90;;;;;;7267200;19;2004680;-76
2022/05/24 07:28:10;;;;;;;1.60;1.15;;;21.90;99.90;;;;;;7372150;19;20420;-75
2022/05/24 07:30:35;;;;;;;1.30;1.20;;;21.90;99.90;;;;;;7374622;19;20368;-76
2022/05/24 07:33:01;;;;;;;2.15;1.48;;;21.50;99.90;;;;;;7374608;19;20349;-76
2022/05/24 07:35:27;;;;;;;1.50;1.40;;;21.70;99.90;;;;;;7372074;19;20330;-75
2022/05/24 07:37:52;;;;;;;1.50;1.40;;;21.60;99.90;;;;;;7375471;19;20336;-75
2022/05/24 07:45:49;;;;;;;1.40;1.30;;;21.70;99.90;;;;;;7373852;19;20341;-76
2022/05/24 07:48:16;;;;;;;1.42;1.33;;;21.60;99.90;;;;;;7378048;19;20348;-75
2022/05/24 07:50:42;;;;;;;1.40;1.30;;;22.00;99.90;;;;;;7378367;19;20325;-76
2022/05/24 07:53:08;;;;;;;1.17;1.13;;;22.20;99.90;;;;;;7380104;19;20328;-76
2022/05/24 07:55:34;;;;;;;1.30;1.20;;;22.00;99.90;;;;;;7375843;19;20316;-75
2022/05/24 07:57:59;;;;;;;1.33;1.15;;;22.30;99.90;;;;;;7374743;19;20605;-76
2022/05/24 08:00:25;;;;;;;1.30;1.20;;;22.30;99.90;;;;;;7375200;19;20518;-76
2022/05/24 08:02:51;;;;;;;1.02;1.00;;;22.40;99.90;;;;;;7377435;19;20697;-76
2022/05/24 08:05:17;;;;;;;1.27;1.17;;;22.40;99.90;;;;;;7373238;19;20344;-76
2022/05/24 08:07:45;;;;;;;1.30;1.20;;;22.20;99.90;;;;;;7374610;19;20340;-76
2022/05/24 08:10:10;;;;;;;1.52;1.40;;;22.20;99.90;;;;;;7375456;19;20480;-76
2022/05/24 08:12:36;;;;;;;1.13;1.13;;;22.30;99.90;;;;;;7363729;19;20463;-76
2022/05/24 08:15:01;;;;;;;1.10;1.10;;;21.80;99.90;;;;;;7374658;19;20324;-75
2022/05/24 08:17:27;;;;;;;3.40;1.30;;;21.80;99.90;;;;;;7376413;19;20335;-76
2022/05/24 08:19:53;;;;;;;1.10;1.10;;;22.00;99.90;;;;;;7377450;19;20349;-76
2022/05/24 08:22:19;;;;;;;1.20;1.10;;;22.20;99.90;;;;;;7370852;19;20738;-76
2022/05/24 08:24:44;;;;;;;1.27;1.20;;;22.40;99.90;;;;;;7348062;19;20968;-75
2022/05/24 08:27:12;;;;;;;1.10;1.10;;;22.40;99.90;;;;;;7374940;19;21252;-76
2022/05/24 08:29:38;;;;;;;1.38;1.25;;;22.30;99.90;;;;;;7374085;19;20317;-75
2022/05/24 08:32:04;;;;;;;1.40;1.30;;;22.10;99.90;;;;;;7371651;19;20349;-76
2022/05/24 08:34:31;;;;;;;1.40;1.30;;;22.00;99.90;;;;;;7378792;19;20349;-76
2022/05/24 08:36:56;;;;;;;1.50;1.40;;;22.10;99.90;;;;;;7371043;19;20341;-75
2022/05/24 08:39:22;;;;;;;1.37;1.30;;;22.00;99.90;;;;;;7375504;19;20336;-76
2022/05/24 08:42:09;;;;;;;2.20;1.93;;;22.10;99.90;;;;;;7371554;19;20337;-75
2022/05/24 08:50:07;;;;;;;1.50;1.40;;;22.00;99.90;;;;;;7272937;19;2004385;-75
2022/05/24 08:52:38;;;;;;;1.40;1.30;;;22.30;99.90;;;;;;7371363;19;20360;-75
2022/05/24 08:55:04;;;;;;;1.55;1.45;;;22.60;99.90;;;;;;7373363;19;20340;-75
2022/05/24 08:57:42;;;;;;;1.85;1.45;;;22.50;99.90;;;;;;7372887;19;20325;-77
2022/05/24 09:00:15;;;;;;;1.48;1.38;;;22.30;99.90;;;;;;7271121;19;2004456;-76
2022/05/24 09:02:45;;;;;;;1.60;1.50;;;22.40;99.90;;;;;;7376708;19;20850;-75
2022/05/24 09:05:22;;;;;;;1.63;1.52;;;22.20;99.90;;;;;;7372818;19;20352;-76
2022/05/24 09:07:54;;;;;;;1.43;1.33;;;22.40;99.90;;;;;;7377637;19;20371;-76
2022/05/24 09:10:21;;;;;;;1.50;1.40;;;22.20;99.90;;;;;;7371735;19;21006;-75
2022/05/24 09:13:03;;;;;;;1.25;1.25;;;22.10;99.90;;;;;;7372635;19;20439;-76
2022/05/24 09:15:56;;;;;;;1.42;1.33;;;21.90;99.90;;;;;;7374964;19;20415;-76
2022/05/24 09:18:49;;;;;;;1.60;1.50;;;21.90;99.90;;;;;;7275178;19;2004514;-76
2022/05/24 09:21:25;;;;;;;2.80;1.60;;;21.80;99.90;;;;;;7271429;19;2008691;-75
2022/05/24 09:23:57;;;;;;;1.70;1.60;;;21.80;99.90;;;;;;7378381;19;20347;-76
2022/05/24 09:26:24;;;;;;;1.95;1.38;;;21.90;99.90;;;;;;7375472;19;20365;-76
2022/05/24 09:28:53;;;;;;;1.55;1.45;;;22.10;99.90;;;;;;7377678;19;20439;-76
2022/05/24 09:31:35;;;;;;;1.55;1.45;;;22.40;99.90;;;;;;7371411;19;20338;-76
2022/05/24 09:34:30;;;;;;;1.70;1.60;;;22.50;99.90;;;;;;7367652;19;20324;-76
2022/05/24 09:37:01;;;;;;;1.73;1.63;;;22.70;99.90;;;;;;7261361;19;2020003;-75
2022/05/24 09:39:35;;;;;;;1.50;1.40;;;22.50;99.90;;;;;;7369305;19;20320;-76
2022/05/24 09:42:11;;;;;;;2.53;1.50;;;23.00;99.90;;;;;;7369353;19;20765;-76
2022/05/24 09:44:46;;;;;;;1.70;1.60;;;23.20;99.90;;;;;;7261638;19;2005588;-75
2022/05/24 09:47:36;;;;;;;2.10;1.80;;;23.30;99.90;;;;;;7366051;19;20339;-76
2022/05/24 09:50:30;;;;;;;1.60;1.50;;;23.50;99.90;;;;;;7265227;19;2019976;-76
2022/05/24 09:53:15;;;;;;;1.70;1.60;;;23.70;99.90;;;;;;7367102;19;20352;-76
2022/05/24 09:55:55;;;;;;;1.50;1.40;;;23.40;99.90;;;;;;7262772;19;2004812;-76
2022/05/24 09:58:36;;;;;;;1.60;1.50;;;23.70;99.90;;;;;;7266441;19;2004244;-76
2022/05/24 10:01:08;;;;;;;1.60;1.50;;;23.90;99.90;;;;;;7258567;19;2004663;-76
2022/05/24 10:03:37;;;;;;;1.60;1.50;;;24.20;99.90;;;;;;7370285;19;20381;-76
2022/05/24 10:06:03;;;;;;;2.70;1.63;;;24.40;99.90;;;;;;7370888;19;20349;-76
2022/05/24 10:08:29;;;;;;;1.53;1.43;;;24.70;99.90;;;;;;7373887;19;20367;-76
2022/05/24 10:10:57;;;;;;;1.50;1.40;;;25.20;99.90;;;;;;7369510;19;20350;-76
2022/05/24 10:13:47;;;;;;;1.67;1.58;;;25.50;99.90;;;;;;7374105;19;20345;-76
2022/05/24 10:16:20;;;;;;;1.52;1.40;;;24.80;99.90;;;;;;7268548;19;2020137;-76
2022/05/24 10:19:17;;;;;;;1.50;1.40;;;24.30;99.90;;;;;;7371044;19;20308;-75
2022/05/24 10:21:50;;;;;;;2.15;1.40;;;24.30;99.90;;;;;;7267209;19;2004508;-76
2022/05/24 10:24:40;;;;;;;1.75;1.52;;;24.10;99.90;;;;;;7373855;19;20341;-76
2022/05/24 10:27:19;;;;;;;1.90;1.60;;;23.70;99.90;;;;;;7367741;19;21686;-76
2022/05/24 10:29:49;;;;;;;1.60;1.50;;;23.50;99.90;;;;;;7371552;19;20399;-76
2022/05/24 10:38:17;;;;;;;1.80;1.70;;;23.50;99.90;;;;;;7375950;19;20345;-76
2022/05/24 10:40:55;;;;;;;3.03;1.50;;;23.50;99.90;;;;;;7365411;19;20693;-76
2022/05/24 10:43:44;;;;;;;1.60;1.50;;;23.50;99.90;;;;;;7375410;19;20420;-76
2022/05/24 10:46:15;;;;;;;1.70;1.60;;;23.60;99.90;;;;;;7266729;19;2004370;-76
2022/05/24 10:48:43;;;;;;;3.10;1.63;;;23.60;99.90;;;;;;7372531;19;20843;-76
2022/05/24 10:51:28;;;;;;;1.80;1.70;;;24.00;99.90;;;;;;7365159;19;20349;-76
2022/05/24 10:54:00;;;;;;;2.80;1.70;;;24.80;99.90;;;;;;7363990;19;20324;-76
2022/05/24 10:56:40;;;;;;;1.70;1.60;;;24.80;99.90;;;;;;7373134;19;20348;-76
2022/05/24 10:59:30;;;;;;;1.67;1.45;;;25.30;99.90;;;;;;7361391;19;20338;-76
2022/05/24 11:02:10;;;;;;;2.45;1.58;;;25.50;99.90;;;;;;7266741;19;2004446;-76
2022/05/24 11:04:43;;;;;;;1.60;1.50;;;25.70;99.90;;;;;;7371973;19;20366;-76
2022/05/24 11:07:11;;;;;;;1.55;1.45;;;25.10;99.90;;;;;;7369321;19;20360;-76
2022/05/24 11:09:40;;;;;;;2.00;1.77;;;24.50;99.90;;;;;;7372431;19;20372;-75
2022/05/24 11:12:19;;;;;;;1.70;1.60;;;23.90;99.90;;;;;;7366815;19;20359;-76
2022/05/24 11:14:51;;;;;;;1.50;1.40;;;23.90;99.90;;;;;;7368974;19;20348;-76
2022/05/24 11:17:20;;;;;;;1.83;1.73;;;24.30;99.90;;;;;;7377285;19;20349;-76
2022/05/24 11:19:49;;;;;;;1.65;1.55;;;24.80;99.90;;;;;;7380598;19;20340;-76
2022/05/24 11:22:38;;;;;;;2.00;1.80;;;25.10;99.90;;;;;;7370958;19;20323;-77
2022/05/24 11:25:15;;;;;;;2.10;1.80;;;25.40;99.90;;;;;;7268604;19;2004799;-76
2022/05/24 11:27:56;;;;;;;2.00;1.90;;;25.50;99.90;;;;;;7368980;19;20336;-76
2022/05/24 11:30:27;;;;;;;1.57;1.47;;;25.50;99.90;;;;;;7367617;19;21192;-76
2022/05/24 11:33:15;;;;;;;1.50;1.40;;;24.80;99.90;;;;;;7371856;19;20359;-76
2022/05/24 11:35:44;;;;;;;1.50;1.40;;;25.20;99.90;;;;;;7260407;19;2004325;-76
2022/05/24 11:38:38;;;;;;;1.60;1.50;;;25.40;99.90;;;;;;7369650;19;20369;-76
2022/05/24 11:41:12;;;;;;;1.75;1.65;;;25.50;99.90;;;;;;7266417;19;2004204;-76
2022/05/24 11:43:43;;;;;;;3.40;1.50;;;25.50;99.90;;;;;;7369569;19;20344;-76
2022/05/24 11:46:09;;;;;;;1.83;1.73;;;25.40;99.90;;;;;;7369438;19;20343;-76
2022/05/24 11:48:47;;;;;;;3.05;1.60;;;25.20;99.90;;;;;;7370988;19;20347;-77
2022/05/24 11:51:28;;;;;;;1.60;1.50;;;25.10;99.90;;;;;;7265632;19;2006282;-76
2022/05/24 11:53:54;;;;;;;1.80;1.70;;;25.50;99.90;;;;;;7268455;19;2004753;-76
2022/05/24 11:56:21;;;;;;;1.47;1.37;;;26.10;99.90;;;;;;7368708;19;20551;-76
2022/05/24 11:58:49;;;;;;;1.17;1.17;;;26.20;99.90;;;;;;7368791;19;20356;-77
2022/05/24 12:01:19;;;;;;;1.70;1.60;;;26.50;99.90;;;;;;7372238;19;20369;-76
2022/05/24 12:09:55;;;;;;;1.50;1.40;;;27.40;99.90;;;;;;7275723;19;2004349;-76
2022/05/24 12:12:34;;;;;;;1.77;1.63;;;27.10;99.90;;;;;;7375554;19;20348;-76
2022/05/24 12:15:21;;;;;;;1.70;1.60;;;26.70;99.90;;;;;;7373578;19;20430;-76
2022/05/24 12:18:18;;;;;;;2.22;1.55;;;25.90;99.90;;;;;;7374371;19;20356;-76
2022/05/24 12:20:44;;;;;;;1.45;1.35;;;25.80;99.90;;;;;;7274934;19;2004416;-76
2022/05/24 12:23:19;;;;;;;1.70;1.60;;;25.90;99.90;;;;;;7379950;19;22431;-76
2022/05/24 12:25:57;;;;;;;1.30;1.20;;;26.20;99.90;;;;;;7370301;19;20345;-76
2022/05/24 12:28:52;;;;;;;1.60;1.50;;;26.20;99.90;;;;;;7378933;19;20308;-76
2022/05/24 12:31:18;;;;;;;2.15;1.65;;;27.00;99.90;;;;;;7268425;19;2004387;-76
2022/05/24 12:33:46;;;;;;;1.65;1.40;;;27.60;99.90;;;;;;7380163;19;20317;-76
2022/05/24 12:36:28;;;;;;;1.60;1.40;;;27.60;99.90;;;;;;7374508;19;20357;-76
2022/05/24 12:39:13;;;;;;;1.87;1.60;;;28.30;99.90;;;;;;7380656;19;20362;-76
2022/05/24 12:41:40;;;;;;;1.73;1.38;;;28.70;99.90;;;;;;7272267;19;2004494;-77
2022/05/24 12:44:13;;;;;;;1.50;1.40;;;28.50;99.90;;;;;;7377751;19;21331;-76
2022/05/24 12:46:39;;;;;;;1.67;1.50;;;27.90;98.40;;;;;;7377905;19;20352;-76
2022/05/24 12:49:10;;;;;;;2.00;1.43;;;27.40;99.90;;;;;;7380246;19;20348;-76
2022/05/24 12:51:37;;;;;;;1.42;1.33;;;27.90;99.90;;;;;;7374624;19;20325;-76
2022/05/24 12:54:18;;;;;;;1.50;1.40;;;28.30;99.90;;;;;;7378576;19;20404;-76
2022/05/24 12:56:58;;;;;;;2.15;1.58;;;27.90;98.10;;;;;;7379470;19;20340;-76
2022/05/24 12:59:34;;;;;;;1.50;1.40;;;27.20;98.30;;;;;;7380288;19;20384;-76
2022/05/24 13:02:14;;;;;;;2.38;1.60;;;27.10;99.40;;;;;;7370894;19;20332;-76
2022/05/24 13:04:40;;;;;;;1.38;1.27;;;27.00;99.80;;;;;;7276292;19;2004346;-76
2022/05/24 13:07:35;;;;;;;1.50;1.40;;;26.70;99.60;;;;;;7274926;19;2004617;-77
2022/05/24 13:10:03;;;;;;;1.10;1.10;;;26.60;99.90;;;;;;7273570;19;2005844;-76
2022/05/24 13:12:29;;;;;;;2.30;1.40;;;26.50;99.90;;;;;;7374305;19;20951;-75
2022/05/24 13:14:59;;;;;;;1.45;1.35;;;26.50;99.40;;;;;;7374409;19;20950;-75
2022/05/24 13:17:27;;;;;;;1.20;1.20;;;26.40;99.40;;;;;;7375121;19;20634;-76
2022/05/24 13:19:53;;;;;;;2.00;1.30;;;26.90;98.40;;;;;;7375333;19;20949;-75
2022/05/24 13:22:20;;;;;;;1.30;1.20;;;27.10;99.00;;;;;;7374937;19;20415;-76
2022/05/24 13:24:55;;;;;;;1.17;1.17;;;27.30;97.30;;;;;;7375899;19;20347;-76
2022/05/24 13:27:20;;;;;;;1.13;1.13;;;27.60;97.00;;;;;;7376252;19;20387;-76
2022/05/24 13:35:26;;;;;;;1.20;1.20;;;27.00;95.80;;;;;;7374936;19;20344;-75
2022/05/24 13:37:54;;;;;;;1.13;1.13;;;26.00;95.30;;;;;;7376378;19;20340;-76
2022/05/24 13:40:40;;;;;;;1.30;1.20;;;26.40;97.00;;;;;;7378288;19;20308;-76
2022/05/24 13:43:06;;;;;;;1.30;1.30;;;26.30;98.10;;;;;;7274806;19;2004392;-76
2022/05/24 13:45:34;;;;;;;1.10;1.10;;;26.20;99.70;;;;;;7371100;19;20349;-76
2022/05/24 13:48:23;;;;;;;1.02;1.02;;;26.30;99.40;;;;;;7374014;19;20684;-75
2022/05/24 13:50:49;;;;;;;2.13;1.23;;;26.50;98.10;;;;;;7373451;19;20340;-76
2022/05/24 13:53:33;;;;;;;1.00;1.00;;;26.30;97.10;;;;;;7376100;19;20349;-76